createdAt,value
2017-09-18T00:00:45.180Z,2.20
2017-09-18T00:03:13.422Z,2.00
2017-09-18T00:05:41.676Z,5.10
2017-09-18T00:08:09.923Z,1.97
2017-09-18T00:10:38.175Z,2.33
2017-09-18T00:13:06.418Z,1.97
2017-09-18T00:15:34.670Z,3.07
2017-09-18T00:18:02.912Z,1.83
2017-09-18T00:20:31.155Z,2.00
2017-09-18T00:23:00.163Z,10.83
2017-09-18T00:25:28.410Z,2.30
2017-09-18T00:27:56.651Z,2.90
2017-09-18T00:30:24.894Z,5.70
2017-09-18T00:32:53.143Z,2.77
2017-09-18T00:35:22.157Z,6.43
2017-09-18T00:37:51.168Z,3.23
2017-09-18T00:40:19.410Z,2.27
2017-09-18T00:42:48.411Z,1.93
2017-09-18T00:45:17.428Z,3.47
2017-09-18T00:47:45.659Z,2.40
2017-09-18T00:50:14.670Z,3.20
2017-09-18T00:52:43.679Z,2.63
2017-09-18T00:55:11.940Z,2.70
2017-09-18T00:57:40.949Z,2.50
2017-09-18T01:00:09.198Z,3.40
2017-09-18T01:02:38.209Z,2.57
2017-09-18T01:05:06.459Z,3.80
2017-09-18T01:07:34.704Z,2.67
2017-09-18T01:10:02.946Z,2.80
2017-09-18T01:12:31.195Z,7.20
2017-09-18T01:15:00.227Z,3.23
2017-09-18T01:17:28.458Z,3.70
2017-09-18T01:19:57.462Z,2.50
2017-09-18T01:22:26.481Z,2.70
2017-09-18T01:24:54.718Z,2.53
2017-09-18T01:27:22.964Z,2.03
2017-09-18T01:29:51.212Z,1.60
2017-09-18T01:32:19.471Z,3.07
2017-09-18T01:34:47.718Z,2.93
2017-09-18T01:37:16.736Z,2.53
2017-09-18T01:39:45.006Z,2.67
2017-09-18T01:42:13.228Z,2.00
2017-09-18T01:44:41.471Z,4.63
2017-09-18T01:47:09.722Z,2.83
2017-09-18T01:49:38.728Z,2.80
2017-09-18T01:52:06.982Z,4.43
2017-09-18T01:54:35.994Z,3.20
2017-09-18T01:57:04.252Z,2.80
2017-09-18T01:59:33.251Z,2.90
2017-09-18T02:02:02.268Z,4.83
2017-09-18T02:04:30.506Z,5.77
2017-09-18T02:06:58.763Z,3.80
2017-09-18T02:09:27.000Z,3.60
2017-09-18T02:11:55.253Z,4.23
2017-09-18T02:14:24.258Z,4.43
2017-09-18T02:16:52.516Z,4.83
2017-09-18T02:19:21.518Z,7.03
2017-09-18T02:21:49.763Z,5.73
2017-09-18T02:24:17.998Z,5.23
2017-09-18T02:26:46.242Z,5.83
2017-09-18T02:29:14.482Z,6.00
2017-09-18T02:31:42.736Z,7.70
2017-09-18T02:34:10.979Z,6.07
2017-09-18T02:36:39.242Z,6.00
2017-09-18T02:39:08.244Z,7.97
2017-09-18T02:41:36.490Z,8.03
2017-09-18T02:44:05.499Z,7.20
2017-09-18T02:46:34.503Z,7.67
2017-09-18T02:49:02.750Z,8.30
2017-09-18T02:51:31.768Z,7.70
2017-09-18T02:54:00.011Z,16.13
2017-09-18T02:56:28.263Z,10.00
2017-09-18T02:58:56.514Z,12.20
2017-09-18T03:01:24.767Z,13.90
2017-09-18T03:03:53.010Z,10.90
2017-09-18T03:06:21.265Z,14.70
2017-09-18T03:08:49.512Z,12.57
2017-09-18T03:11:17.767Z,14.70
2017-09-18T03:13:46.014Z,12.40
2017-09-18T03:16:14.330Z,13.77
2017-09-18T03:18:42.577Z,18.30
2017-09-18T03:21:11.586Z,20.73
2017-09-18T03:23:39.838Z,19.17
2017-09-18T03:26:08.859Z,17.80
2017-09-18T03:28:37.106Z,14.17
2017-09-18T03:31:06.138Z,16.93
2017-09-18T03:33:34.389Z,17.07
2017-09-18T03:36:03.405Z,19.43
2017-09-18T03:38:31.653Z,13.97
2017-09-18T03:41:00.678Z,12.43
2017-09-18T03:43:28.932Z,15.90
2017-09-18T03:45:57.948Z,17.10
2017-09-18T03:48:26.192Z,14.93
2017-09-18T03:50:55.223Z,14.07
2017-09-18T03:53:23.467Z,16.03
2017-09-18T03:55:51.728Z,16.33
2017-09-18T03:58:20.739Z,14.27
2017-09-18T04:00:49.004Z,16.03
2017-09-18T04:03:17.246Z,11.83
2017-09-18T04:05:45.494Z,14.40
2017-09-18T04:08:13.748Z,16.10
2017-09-18T04:10:42.006Z,12.80
2017-09-18T04:13:10.255Z,14.10
2017-09-18T04:15:38.495Z,16.13
2017-09-18T04:18:06.742Z,11.80
2017-09-18T04:20:34.978Z,10.50
2017-09-18T04:23:04.001Z,9.23
2017-09-18T04:25:32.238Z,9.83
2017-09-18T04:28:00.568Z,12.80
2017-09-18T04:30:28.802Z,11.10
2017-09-18T04:32:57.818Z,10.40
2017-09-18T04:35:26.057Z,12.47
2017-09-18T04:37:55.074Z,9.67
2017-09-18T04:40:24.079Z,8.90
2017-09-18T04:42:52.330Z,10.37
2017-09-18T04:45:21.334Z,9.77
2017-09-18T04:47:50.347Z,9.50
2017-09-18T04:50:18.595Z,12.77
2017-09-18T04:52:47.614Z,10.30
2017-09-18T04:55:15.849Z,11.37
2017-09-18T04:57:44.103Z,11.93
2017-09-18T05:00:12.348Z,13.43
2017-09-18T05:02:40.594Z,12.80
2017-09-18T05:05:09.603Z,11.17
2017-09-18T05:07:37.860Z,12.00
2017-09-18T05:10:06.881Z,12.53
2017-09-18T05:12:35.126Z,13.60
2017-09-18T05:15:04.152Z,15.00
2017-09-18T05:17:32.402Z,12.57
2017-09-18T05:20:01.427Z,11.50
2017-09-18T05:22:29.667Z,15.80
2017-09-18T05:24:58.696Z,12.40
2017-09-18T05:27:26.935Z,14.13
2017-09-18T05:29:55.946Z,12.47
2017-09-18T05:32:24.194Z,14.07
2017-09-18T05:34:53.214Z,11.87
2017-09-18T05:37:21.463Z,11.53
2017-09-18T05:39:49.718Z,9.90
2017-09-18T05:42:17.958Z,11.53
2017-09-18T05:44:46.193Z,10.77
2017-09-18T05:47:15.214Z,11.30
2017-09-18T05:49:43.466Z,14.37
2017-09-18T05:52:12.490Z,13.23
2017-09-18T05:54:40.735Z,13.50
2017-09-18T05:57:09.767Z,11.60
2017-09-18T05:59:38.011Z,11.73
2017-09-18T06:02:07.039Z,12.00
2017-09-18T06:04:35.282Z,10.77
2017-09-18T06:07:03.531Z,10.77
2017-09-18T06:09:31.779Z,11.47
2017-09-18T06:12:00.031Z,10.30
2017-09-18T06:14:28.278Z,11.13
2017-09-18T06:16:57.304Z,10.33
2017-09-18T06:19:25.552Z,11.60
2017-09-18T06:21:53.798Z,11.30
2017-09-18T06:24:22.053Z,10.37
2017-09-18T06:26:50.294Z,10.80
2017-09-18T06:29:18.546Z,10.33
2017-09-18T06:31:47.558Z,10.13
2017-09-18T06:34:15.814Z,12.03
2017-09-18T06:36:44.837Z,12.40
2017-09-18T06:39:13.088Z,11.13
2017-09-18T06:41:41.334Z,10.37
2017-09-18T06:44:09.584Z,10.13
2017-09-18T06:46:37.838Z,11.70
2017-09-18T06:49:06.086Z,10.33
2017-09-18T06:51:34.335Z,9.90
2017-09-18T06:54:02.607Z,10.40
2017-09-18T06:56:30.848Z,11.30
2017-09-18T06:58:59.078Z,9.80
2017-09-18T07:01:28.095Z,8.80
2017-09-18T07:03:56.340Z,9.40
2017-09-18T07:06:25.347Z,9.90
2017-09-18T07:08:53.594Z,15.10
2017-09-18T07:11:21.843Z,10.40
2017-09-18T07:13:50.094Z,10.37
2017-09-18T07:16:18.354Z,11.93
2017-09-18T07:18:46.591Z,9.80
2017-09-18T07:21:14.844Z,10.67
2017-09-18T07:23:43.085Z,11.33
2017-09-18T07:26:11.353Z,10.67
2017-09-18T07:28:39.590Z,9.30
2017-09-18T07:31:07.878Z,11.27
2017-09-18T07:33:36.126Z,10.57
2017-09-18T07:36:04.374Z,9.23
2017-09-18T07:38:32.624Z,8.97
2017-09-18T07:41:01.643Z,10.10
2017-09-18T07:43:29.894Z,8.73
2017-09-18T07:45:58.915Z,9.33
2017-09-18T07:48:27.167Z,11.97
2017-09-18T07:50:55.522Z,8.53
2017-09-18T07:53:24.543Z,8.60
2017-09-18T07:55:52.793Z,6.97
2017-09-18T07:58:21.810Z,8.40
2017-09-18T08:00:50.062Z,7.03
2017-09-18T08:03:19.099Z,7.53
2017-09-18T08:05:47.346Z,6.60
2017-09-18T08:08:16.366Z,6.37
2017-09-18T08:10:44.624Z,6.97
2017-09-18T08:13:12.875Z,7.27
2017-09-18T08:15:41.905Z,6.67
2017-09-18T08:18:10.156Z,7.33
2017-09-18T08:20:39.179Z,6.07
2017-09-18T08:23:07.423Z,5.80
2017-09-18T08:25:36.453Z,6.60
2017-09-18T08:28:04.711Z,5.80
2017-09-18T08:30:32.970Z,6.50
2017-09-18T08:33:01.992Z,5.90
2017-09-18T08:35:30.261Z,5.10
2017-09-18T08:37:58.499Z,5.90
2017-09-18T08:40:27.518Z,6.03
2017-09-18T08:42:55.775Z,6.13
2017-09-18T08:45:24.791Z,6.10
2017-09-18T08:47:53.046Z,5.53
2017-09-18T08:50:22.062Z,5.27
2017-09-18T08:52:50.378Z,5.13
2017-09-18T08:55:18.578Z,6.63
2017-09-18T08:57:47.600Z,6.37
2017-09-18T09:00:15.852Z,7.10
2017-09-18T09:02:44.879Z,5.67
2017-09-18T09:05:13.131Z,5.13
2017-09-18T09:07:42.168Z,4.83
2017-09-18T09:10:10.410Z,4.40
2017-09-18T09:12:38.663Z,4.50
2017-09-18T09:15:07.686Z,4.70
2017-09-18T09:17:35.944Z,5.27
2017-09-18T09:20:04.963Z,4.73
2017-09-18T09:22:33.214Z,3.90
2017-09-18T09:25:02.231Z,4.30
2017-09-18T09:27:30.483Z,4.30
2017-09-18T09:29:59.503Z,4.50
2017-09-18T09:32:27.750Z,4.30
2017-09-18T09:34:56.774Z,3.50
2017-09-18T09:37:25.022Z,3.67
2017-09-18T09:39:54.046Z,3.90
2017-09-18T09:42:22.298Z,3.73
2017-09-18T09:44:50.550Z,4.70
2017-09-18T09:47:19.567Z,4.50
2017-09-18T09:49:47.832Z,5.93
2017-09-18T09:52:16.853Z,4.50
2017-09-18T09:54:45.095Z,3.43
2017-09-18T09:57:14.115Z,6.67
2017-09-18T09:59:42.364Z,4.60
2017-09-18T10:02:11.386Z,3.40
2017-09-18T10:04:39.632Z,4.07
2017-09-18T10:07:08.654Z,3.70
2017-09-18T10:09:36.908Z,3.70
2017-09-18T10:12:05.930Z,3.07
2017-09-18T10:14:34.184Z,3.40
2017-09-18T10:17:02.440Z,2.93
2017-09-18T10:19:31.455Z,3.63
2017-09-18T10:21:59.711Z,3.60
2017-09-18T10:24:28.723Z,6.03
2017-09-18T10:26:56.992Z,3.40
2017-09-18T10:29:26.004Z,4.83
2017-09-18T10:31:54.247Z,6.20
2017-09-18T10:34:23.271Z,3.27
2017-09-18T10:36:51.518Z,2.80
2017-09-18T10:39:20.540Z,3.60
2017-09-18T10:41:48.791Z,4.03
2017-09-18T10:44:17.808Z,2.97
2017-09-18T10:46:46.060Z,4.20
2017-09-18T10:49:15.074Z,2.50
2017-09-18T10:51:43.330Z,2.60
2017-09-18T10:54:12.371Z,2.40
2017-09-18T10:56:40.615Z,2.63
2017-09-18T10:59:08.859Z,6.23
2017-09-18T11:01:37.880Z,3.80
2017-09-18T11:04:06.126Z,2.53
2017-09-18T11:06:35.152Z,2.60
2017-09-18T11:09:03.403Z,2.63
2017-09-18T11:11:32.418Z,2.33
2017-09-18T11:14:00.671Z,2.10
2017-09-18T11:16:29.687Z,3.77
2017-09-18T11:18:57.934Z,2.60
2017-09-18T11:21:26.953Z,1.93
2017-09-18T11:23:55.202Z,2.70
2017-09-18T11:26:23.453Z,2.80
2017-09-18T11:28:51.714Z,3.43
2017-09-18T11:31:19.971Z,2.50
2017-09-18T11:33:48.214Z,2.17
2017-09-18T11:36:17.231Z,2.70
2017-09-18T11:38:45.486Z,2.23
2017-09-18T11:41:14.496Z,2.20
2017-09-18T11:43:42.747Z,6.70
2017-09-18T11:46:11.763Z,2.30
2017-09-18T11:48:40.016Z,2.77
2017-09-18T11:51:09.032Z,1.77
2017-09-18T11:53:37.279Z,3.20
2017-09-18T11:56:06.295Z,2.97
2017-09-18T11:58:34.550Z,2.47
2017-09-18T12:01:03.553Z,2.63
2017-09-18T12:03:31.811Z,2.60
2017-09-18T12:06:00.058Z,3.50
2017-09-18T12:08:28.331Z,2.73
2017-09-18T12:10:56.579Z,3.80
2017-09-18T12:13:24.821Z,2.37
2017-09-18T12:15:53.849Z,2.60
2017-09-18T12:18:22.130Z,2.00
2017-09-18T12:20:50.374Z,3.53
2017-09-18T12:23:19.388Z,4.83
2017-09-18T12:25:47.644Z,2.80
2017-09-18T12:28:16.651Z,2.47
2017-09-18T12:30:44.910Z,2.47
2017-09-18T12:33:13.929Z,2.23
2017-09-18T12:35:42.195Z,4.60
2017-09-18T12:38:10.439Z,3.03
2017-09-18T12:40:39.456Z,2.60
2017-09-18T12:43:07.704Z,2.13
2017-09-18T12:45:35.968Z,2.10
2017-09-18T12:48:04.223Z,2.47
2017-09-18T12:50:32.472Z,3.10
2017-09-18T12:53:00.732Z,1.30
2017-09-18T12:55:28.983Z,1.77
2017-09-18T12:57:58.010Z,2.23
2017-09-18T13:00:26.267Z,1.37
2017-09-18T13:02:55.287Z,2.30
2017-09-18T13:05:23.535Z,2.70
2017-09-18T13:07:52.559Z,2.17
2017-09-18T13:10:20.802Z,2.40
2017-09-18T13:12:49.822Z,1.40
2017-09-18T13:15:18.071Z,1.63
2017-09-18T13:17:47.183Z,2.07
2017-09-18T13:20:15.428Z,3.10
2017-09-18T13:22:44.463Z,2.80
2017-09-18T13:25:12.707Z,2.60
2017-09-18T13:27:41.728Z,2.20
2017-09-18T13:30:09.984Z,1.50
2017-09-18T13:32:38.226Z,1.90
2017-09-18T13:35:07.993Z,1.57
2017-09-18T13:37:36.244Z,2.60
2017-09-18T13:40:04.508Z,1.33
2017-09-18T13:42:33.522Z,1.63
2017-09-18T13:45:01.773Z,1.67
2017-09-18T13:47:30.792Z,1.60
2017-09-18T13:49:59.056Z,10.17
2017-09-18T13:52:28.074Z,14.90
2017-09-18T13:54:56.338Z,4.63
2017-09-18T13:57:24.602Z,28.97
2017-09-18T13:59:53.619Z,3.73
2017-09-18T14:02:21.867Z,2.47
2017-09-18T14:04:50.156Z,2.40
2017-09-18T14:07:19.137Z,3.00
2017-09-18T14:09:47.396Z,3.30
2017-09-18T14:12:16.410Z,2.77
2017-09-18T14:14:44.665Z,3.07
2017-09-18T14:17:13.679Z,6.03
2017-09-18T14:19:41.938Z,2.93
2017-09-18T14:22:10.953Z,2.40
2017-09-18T14:24:39.201Z,3.20
2017-09-18T14:27:07.437Z,2.70
2017-09-18T14:29:35.693Z,1.90
2017-09-18T14:32:03.939Z,1.90
2017-09-18T14:34:32.950Z,2.23
2017-09-18T14:37:01.198Z,2.30
2017-09-18T14:39:30.215Z,2.30
2017-09-18T14:41:58.462Z,2.03
2017-09-18T14:44:27.495Z,1.70
2017-09-18T14:46:55.734Z,2.20
2017-09-18T14:49:24.756Z,2.57
2017-09-18T14:51:53.007Z,2.33
2017-09-18T14:54:22.017Z,2.20
2017-09-18T14:56:50.275Z,1.93
2017-09-18T14:59:19.300Z,3.80
2017-09-18T15:01:47.538Z,3.33
2017-09-18T15:04:16.559Z,3.27
2017-09-18T15:06:44.807Z,3.43
2017-09-18T15:09:13.838Z,6.57
2017-09-18T15:11:42.087Z,4.80
2017-09-18T15:14:11.099Z,3.90
2017-09-18T15:16:39.354Z,7.17
2017-09-18T15:19:07.615Z,5.03
2017-09-18T15:21:36.639Z,5.83
2017-09-18T15:24:04.886Z,5.57
2017-09-18T15:26:33.910Z,4.50
2017-09-18T15:29:02.162Z,4.80
2017-09-18T15:31:31.182Z,2.90
2017-09-18T15:33:59.427Z,2.30
2017-09-18T15:36:28.449Z,2.53
2017-09-18T15:38:56.694Z,2.60
2017-09-18T15:41:25.714Z,2.57
2017-09-18T15:43:54.002Z,1.73
2017-09-18T15:46:22.994Z,1.40
2017-09-18T15:48:51.243Z,1.70
2017-09-18T15:51:20.257Z,1.47
2017-09-18T15:53:48.514Z,1.93
2017-09-18T15:56:17.543Z,2.83
2017-09-18T15:58:45.787Z,5.60
2017-09-18T16:01:14.038Z,3.87
2017-09-18T16:03:43.058Z,2.63
2017-09-18T16:06:11.299Z,2.63
2017-09-18T16:08:39.542Z,5.00
2017-09-18T16:11:07.791Z,2.67
2017-09-18T16:13:36.039Z,2.20
2017-09-18T16:16:05.048Z,2.10
2017-09-18T16:18:34.067Z,13.50
2017-09-18T16:21:02.317Z,3.80
2017-09-18T16:23:30.737Z,2.40
2017-09-18T16:25:59.002Z,5.80
2017-09-18T16:28:27.251Z,4.00
2017-09-18T16:30:55.501Z,2.63
2017-09-18T16:33:24.515Z,3.80
2017-09-18T16:35:52.780Z,2.03
2017-09-18T16:38:21.783Z,4.00
2017-09-18T16:40:50.039Z,6.40
2017-09-18T16:43:19.052Z,7.23
2017-09-18T16:45:47.317Z,4.80
2017-09-18T16:48:16.326Z,4.10
2017-09-18T16:50:44.583Z,2.70
2017-09-18T16:53:13.623Z,7.53
2017-09-18T16:55:41.841Z,6.40
2017-09-18T16:58:10.083Z,3.50
2017-09-18T17:00:38.338Z,3.77
2017-09-18T17:03:06.582Z,6.60
2017-09-18T17:05:35.595Z,6.13
2017-09-18T17:08:03.838Z,5.80
2017-09-18T17:10:32.865Z,6.27
2017-09-18T17:13:01.110Z,6.77
2017-09-18T17:15:30.127Z,7.87
2017-09-18T17:17:58.419Z,11.07
2017-09-18T17:20:27.393Z,7.80
2017-09-18T17:22:55.640Z,8.57
2017-09-18T17:25:23.879Z,8.00
2017-09-18T17:27:52.127Z,7.40
2017-09-18T17:30:20.365Z,9.70
2017-09-18T17:32:49.386Z,10.87
2017-09-18T17:35:17.627Z,11.30
2017-09-18T17:37:45.886Z,11.53
2017-09-18T17:40:14.131Z,14.10
2017-09-18T17:42:42.396Z,16.13
2017-09-18T17:45:10.635Z,15.47
2017-09-18T17:47:39.661Z,19.57
2017-09-18T17:50:07.909Z,16.53
2017-09-18T17:52:36.926Z,20.57
2017-09-18T17:55:05.175Z,22.63
2017-09-18T17:57:34.192Z,36.50
2017-09-18T18:00:02.446Z,52.50
2017-09-18T18:02:31.464Z,37.23
2017-09-18T18:04:59.714Z,39.63
2017-09-18T18:07:28.731Z,42.90
2017-09-18T18:09:56.991Z,37.90
2017-09-18T18:12:26.142Z,39.13
2017-09-18T18:14:54.411Z,45.87
2017-09-18T18:17:22.655Z,56.40
2017-09-18T18:19:50.899Z,51.30
2017-09-18T18:22:19.914Z,55.97
2017-09-18T18:24:48.163Z,51.67
2017-09-18T18:27:16.419Z,82.80
2017-09-18T18:29:44.662Z,66.37
2017-09-18T18:32:12.919Z,50.83
2017-09-18T18:34:41.164Z,67.30
2017-09-18T18:37:09.418Z,59.13
2017-09-18T18:39:37.666Z,43.60
2017-09-18T18:42:05.933Z,80.17
2017-09-18T18:44:34.175Z,75.20
2017-09-18T18:47:03.187Z,51.50
2017-09-18T18:49:31.449Z,41.20
2017-09-18T18:52:00.484Z,21.60
2017-09-18T18:54:28.731Z,38.23
2017-09-18T18:56:56.982Z,28.27
2017-09-18T18:59:26.004Z,47.37
2017-09-18T19:01:54.255Z,56.40
2017-09-18T19:04:22.512Z,31.77
2017-09-18T19:06:51.527Z,37.60
2017-09-18T19:09:19.806Z,25.10
2017-09-18T19:11:48.055Z,32.70
2017-09-18T19:14:16.313Z,26.10
2017-09-18T19:16:44.567Z,21.60
2017-09-18T19:19:12.814Z,21.43
2017-09-18T19:21:41.834Z,17.00
2017-09-18T19:24:10.088Z,15.23
2017-09-18T19:26:39.098Z,16.53
2017-09-18T19:29:07.390Z,13.90
2017-09-18T19:31:35.644Z,25.33
2017-09-18T19:34:03.932Z,22.03
2017-09-18T19:36:32.174Z,27.10
2017-09-18T19:39:01.197Z,29.10
2017-09-18T19:41:29.442Z,20.50
2017-09-18T19:43:58.462Z,29.20
2017-09-18T19:46:26.753Z,34.13
2017-09-18T19:48:55.048Z,27.03
2017-09-18T19:51:23.296Z,24.37
2017-09-18T19:53:51.551Z,27.77
2017-09-18T19:56:20.569Z,22.00
2017-09-18T19:58:48.823Z,23.83
2017-09-18T20:01:17.835Z,18.40
2017-09-18T20:03:46.108Z,25.87
2017-09-18T20:06:14.360Z,25.60
2017-09-18T20:08:43.370Z,28.67
2017-09-18T20:11:11.669Z,13.57
2017-09-18T20:13:39.914Z,25.20
2017-09-18T20:16:08.931Z,22.07
2017-09-18T20:18:37.187Z,22.50
2017-09-18T20:21:05.440Z,23.93
2017-09-18T20:23:33.695Z,27.13
2017-09-18T20:26:02.711Z,27.77
2017-09-18T20:28:30.975Z,23.37
2017-09-18T20:30:59.235Z,25.70
2017-09-18T20:33:27.484Z,17.07
2017-09-18T20:35:55.750Z,16.00
2017-09-18T20:38:24.006Z,22.80
2017-09-18T20:40:52.254Z,23.60
2017-09-18T20:43:20.515Z,20.30
2017-09-18T20:45:48.775Z,23.20
2017-09-18T20:48:17.027Z,20.93
2017-09-18T20:50:45.279Z,22.23
2017-09-18T20:53:13.595Z,24.70
2017-09-18T20:55:41.836Z,22.00
2017-09-18T20:58:10.087Z,19.90
2017-09-18T21:00:38.339Z,19.20
2017-09-18T21:03:07.359Z,18.20
2017-09-18T21:05:35.611Z,13.20
2017-09-18T21:08:04.632Z,9.07
2017-09-18T21:10:32.879Z,10.90
2017-09-18T21:13:01.131Z,8.50
2017-09-18T21:15:29.384Z,13.47
2017-09-18T21:17:57.629Z,8.70
2017-09-18T21:20:25.874Z,10.13
2017-09-18T21:22:54.126Z,9.40
2017-09-18T21:25:22.375Z,5.53
2017-09-18T21:27:50.622Z,5.43
2017-09-18T21:30:19.622Z,7.40
2017-09-18T21:32:47.874Z,7.53
2017-09-18T21:35:16.887Z,6.50
2017-09-18T21:37:45.138Z,5.80
2017-09-18T21:40:13.378Z,6.37
2017-09-18T21:42:41.631Z,10.03
2017-09-18T21:45:09.875Z,5.97
2017-09-18T21:47:38.893Z,6.23
2017-09-18T21:50:07.131Z,4.60
2017-09-18T21:52:35.379Z,4.13
2017-09-18T21:55:03.622Z,4.60
2017-09-18T21:57:31.878Z,3.70
2017-09-18T22:00:00.884Z,3.83
2017-09-18T22:02:29.133Z,5.03
2017-09-18T22:04:58.146Z,3.93
2017-09-18T22:07:26.398Z,4.13
2017-09-18T22:09:55.411Z,4.20
2017-09-18T22:12:23.659Z,7.77
2017-09-18T22:14:51.894Z,8.73
2017-09-18T22:17:20.151Z,9.50
2017-09-18T22:19:48.402Z,10.63
2017-09-18T22:22:17.415Z,8.50
2017-09-18T22:24:45.653Z,9.87
2017-09-18T22:27:13.905Z,9.73
2017-09-18T22:29:42.163Z,18.17
2017-09-18T22:32:10.424Z,12.90
2017-09-18T22:34:38.676Z,15.57
2017-09-18T22:37:06.936Z,14.83
2017-09-18T22:39:35.183Z,15.43
2017-09-18T22:42:03.442Z,15.70
2017-09-18T22:44:32.669Z,13.00
2017-09-18T22:47:01.054Z,9.80
2017-09-18T22:49:29.307Z,12.40
2017-09-18T22:51:57.794Z,14.43
2017-09-18T22:54:26.041Z,14.17
2017-09-18T22:56:55.118Z,19.90
2017-09-18T22:59:23.380Z,23.87
2017-09-18T23:01:52.397Z,26.43
2017-09-18T23:04:21.421Z,32.97
2017-09-18T23:06:49.951Z,30.93
2017-09-18T23:09:18.212Z,27.07
2017-09-18T23:11:46.458Z,27.83
2017-09-18T23:14:14.718Z,16.23
2017-09-18T23:16:42.975Z,24.87
2017-09-18T23:19:11.999Z,19.43
2017-09-18T23:21:40.243Z,17.63
2017-09-18T23:24:09.268Z,13.90
2017-09-18T23:26:37.514Z,12.03
2017-09-18T23:29:06.538Z,13.03
2017-09-18T23:31:34.786Z,17.90
2017-09-18T23:34:03.042Z,18.80
2017-09-18T23:36:32.054Z,14.17
2017-09-18T23:39:01.077Z,17.43
2017-09-18T23:41:29.331Z,19.07
2017-09-18T23:43:57.586Z,15.30
2017-09-18T23:46:26.595Z,17.80
2017-09-18T23:48:54.849Z,23.40
2017-09-18T23:51:23.864Z,12.80
2017-09-18T23:53:52.879Z,19.20
2017-09-18T23:56:21.128Z,16.27
2017-09-18T23:58:49.382Z,20.13
